Time;durP1;ratioP1;P1;durP2;ratioP2;P2;SDS_P1;SDS_P2;PMS_P1;PMS_P2;Temp;Humidity;BMP_temperature;BMP_pressure;BME280_temperature;BME280_humidity;BME280_pressure;Samples;Min_cycle;Max_cycle;Signal;HPM_P1;HPM_P2
2022/12/17 13:07:28;;;;;;;;;53.50;42.25;;;;;1.89;62.69;101625.59;5021652;28;45353;-61
2022/12/17 13:09:56;;;;;;;;;62.00;45.75;;;;;1.89;62.54;101621.28;5017873;28;45466;-61
2022/12/17 13:12:44;;;;;;;;;48.75;43.25;;;;;1.86;61.91;101613.47;5017815;28;45496;-60
2022/12/17 13:15:19;;;;;;;;;59.50;44.50;;;;;1.86;62.31;101621.25;5018063;28;45461;-61
2022/12/17 13:18:13;;;;;;;;;52.50;45.50;;;;;1.87;62.26;101616.91;5017574;28;45615;-58
2022/12/17 13:20:39;;;;;;;;;59.25;49.75;;;;;1.91;62.35;101614.41;5019181;28;45447;-59
2022/12/17 13:23:10;;;;;;;;;61.50;47.25;;;;;1.93;62.19;101617.88;5032600;28;45530;-60
2022/12/17 13:25:36;;;;;;;;;60.50;48.00;;;;;1.94;62.18;101623.97;5038099;28;46453;-59
2022/12/17 13:28:02;;;;;;;;;50.75;42.25;;;;;1.90;61.74;101617.84;5036328;28;45497;-58
2022/12/17 13:30:36;;;;;;;;;53.00;42.50;;;;;1.86;61.52;101610.88;5031611;28;45776;-59
2022/12/17 13:33:22;;;;;;;;;54.00;42.25;;;;;1.84;61.75;101616.88;5030774;28;45459;-59
2022/12/17 13:35:56;;;;;;;;;46.75;40.00;;;;;1.81;61.68;101624.59;5037386;28;45480;-59
2022/12/17 13:38:40;;;;;;;;;51.50;44.25;;;;;1.77;61.28;101615.88;5037267;28;45432;-59
2022/12/17 13:41:12;;;;;;;;;37.00;33.75;;;;;1.72;61.68;101621.00;5037628;28;45515;-59
2022/12/17 13:43:47;;;;;;;;;46.75;41.25;;;;;1.69;62.22;101614.88;5037174;28;45585;-59
2022/12/17 13:46:23;;;;;;;;;58.75;44.25;;;;;1.69;62.06;101615.78;5035760;28;47969;-59
2022/12/17 13:48:56;;;;;;;;;51.25;41.75;;;;;1.74;62.00;101618.44;5036808;28;45453;-59
2022/12/17 13:51:23;;;;;;;;;55.75;46.00;;;;;1.75;61.36;101613.28;5037316;28;45400;-60
2022/12/17 13:53:55;;;;;;;;;57.50;47.75;;;;;1.82;61.45;101609.06;5036384;28;45399;-60
2022/12/17 13:56:32;;;;;;;;;51.00;42.00;;;;;1.79;62.11;101608.13;5036376;28;46630;-60
2022/12/17 13:59:01;;;;;;;;;54.00;43.75;;;;;1.79;61.58;101611.59;5036210;28;45406;-60
2022/12/17 14:01:27;;;;;;;;;50.25;43.50;;;;;1.75;62.30;101602.91;5031365;28;45500;-60
2022/12/17 14:04:02;;;;;;;;;61.25;43.50;;;;;1.59;61.74;101584.47;5034121;28;45582;-61
2022/12/17 14:06:36;;;;;;;;;57.00;44.50;;;;;1.77;61.61;101613.28;5037109;28;46397;-60
2022/12/17 14:09:02;;;;;;;;;50.25;42.75;;;;;1.80;62.28;101612.47;5036078;28;45512;-60
2022/12/17 14:14:29;;;;;;;;;50.50;43.75;;;;;1.84;62.05;101615.16;5036408;28;45434;-59
2022/12/17 14:16:55;;;;;;;;;52.50;43.25;;;;;1.86;62.12;101615.19;5036064;28;46495;-60
2022/12/17 14:19:21;;;;;;;;;50.00;40.25;;;;;1.84;61.93;101612.56;5026116;28;45567;-59
2022/12/17 14:21:47;;;;;;;;;57.00;46.75;;;;;1.89;61.53;101616.09;5036862;28;45569;-60
2022/12/17 14:24:12;;;;;;;;;56.00;44.25;;;;;1.93;61.37;101628.25;5037429;28;45569;-59
2022/12/17 14:26:56;;;;;;;;;48.00;42.00;;;;;1.93;61.26;101629.97;5034474;28;45621;-59
2022/12/17 14:29:28;;;;;;;;;59.50;44.75;;;;;1.90;61.32;101617.84;5035655;28;45457;-59
2022/12/17 14:32:20;;;;;;;;;48.25;43.00;;;;;1.92;60.94;101625.66;5032572;28;45420;-59
2022/12/17 14:34:45;;;;;;;;;46.25;42.50;;;;;1.91;61.26;101623.91;5036756;28;45419;-59
2022/12/17 14:37:17;;;;;;;;;54.00;43.50;;;;;1.90;61.40;101622.16;5036563;28;46273;-60
2022/12/17 14:39:45;;;;;;;;;50.75;43.00;;;;;1.89;61.18;101625.59;5027691;28;45421;-61
2022/12/17 14:42:24;;;;;;;;;56.00;41.50;;;;;1.92;61.04;101629.13;5021921;28;45387;-60
2022/12/17 14:44:57;;;;;;;;;48.25;42.50;;;;;1.91;60.62;101627.38;5036581;28;45566;-60
2022/12/17 14:47:33;;;;;;;;;48.00;40.25;;;;;1.89;60.89;101631.66;5035647;28;45724;-60
2022/12/17 14:50:16;;;;;;;;;50.00;44.75;;;;;1.89;61.12;101630.78;5035858;28;45501;-60
2022/12/17 14:52:47;;;;;;;;;49.50;43.00;;;;;1.89;61.01;101634.25;5036034;28;45451;-60
2022/12/17 14:55:31;;;;;;;;;47.50;41.25;;;;;1.88;60.55;101626.44;5036703;28;45469;-60
2022/12/17 14:58:26;;;;;;;;;43.75;39.50;;;;;1.88;60.68;101614.38;5035745;28;45466;-61
2022/12/17 15:01:10;;;;;;;;;53.50;45.00;;;;;1.84;60.46;101617.75;5013830;28;45523;-60
2022/12/17 15:03:41;;;;;;;;;45.00;40.00;;;;;1.83;59.92;101602.13;5036048;28;45784;-60
2022/12/17 15:06:09;;;;;;;;;37.25;31.25;;;;;1.73;60.85;101608.91;5036122;28;45361;-59
2022/12/17 15:08:39;;;;;;;;;39.75;38.25;;;;;1.79;60.47;101608.13;5035528;28;46686;-60
2022/12/17 15:11:04;;;;;;;;;41.25;35.00;;;;;1.84;60.09;101612.56;5035206;28;45486;-59
2022/12/17 15:13:30;;;;;;;;;44.25;40.00;;;;;1.89;59.89;101620.41;5036246;28;45572;-60
2022/12/17 15:15:56;;;;;;;;;34.00;30.00;;;;;1.85;59.68;101609.09;5035927;28;45584;-60
2022/12/17 15:18:21;;;;;;;;;42.50;34.75;;;;;1.84;59.45;101622.94;5031626;28;46500;-59
2022/12/17 15:20:47;;;;;;;;;39.25;36.00;;;;;1.87;59.42;101619.50;5026186;28;45464;-60
2022/12/17 15:23:18;;;;;;;;;43.00;39.75;;;;;1.86;59.01;101618.66;5035011;28;45407;-60
2022/12/17 15:25:45;;;;;;;;;41.75;36.25;;;;;1.88;59.62;101610.88;5025744;28;45529;-60
2022/12/17 15:28:11;;;;;;;;;46.25;38.00;;;;;1.83;59.57;101603.03;5015386;28;45600;-60
2022/12/17 15:30:38;;;;;;;;;45.50;40.00;;;;;1.88;59.62;101605.69;5021572;28;45782;-60
2022/12/17 15:33:05;;;;;;;;;53.00;42.50;;;;;1.86;59.37;101607.41;5020722;28;45393;-60
2022/12/17 15:35:31;;;;;;;;;45.25;41.00;;;;;1.83;59.64;101616.00;5015736;28;45408;-60
2022/12/17 15:37:56;;;;;;;;;47.50;40.25;;;;;1.84;59.63;101622.94;5015665;28;47193;-60
2022/12/17 15:40:21;;;;;;;;;50.00;40.25;;;;;1.83;59.74;101621.19;5014196;28;45460;-60
2022/12/17 15:45:30;;;;;;;;;43.50;40.75;;;;;1.69;60.19;101604.50;5015722;28;45434;-60
2022/12/17 15:47:56;;;;;;;;;41.50;39.75;;;;;1.84;59.82;101622.94;5015846;28;46338;-60
2022/12/17 15:50:22;;;;;;;;;51.75;42.50;;;;;1.80;59.90;101623.75;5015282;28;45414;-60
2022/12/17 15:52:47;;;;;;;;;56.75;43.00;;;;;1.75;60.96;101622.78;5015665;28;45472;-60
2022/12/17 15:55:13;;;;;;;;;50.75;40.25;;;;;1.80;60.22;101634.13;5015484;28;45589;-59
2022/12/17 15:57:39;;;;;;;;;55.50;44.50;;;;;1.82;59.81;101647.09;5019248;28;46518;-60
2022/12/17 16:00:04;;;;;;;;;53.75;42.75;;;;;1.77;59.67;101644.41;5020830;28;45440;-59
2022/12/17 16:02:30;;;;;;;;;45.25;41.75;;;;;1.78;60.07;101643.59;5019044;28;45528;-59
2022/12/17 16:04:55;;;;;;;;;44.00;38.00;;;;;1.77;59.99;101645.31;5023890;28;45425;-60
2022/12/17 16:07:21;;;;;;;;;49.25;42.50;;;;;1.77;59.95;101645.31;5014846;28;46272;-60
2022/12/17 16:09:46;;;;;;;;;50.25;43.50;;;;;1.80;60.18;101657.47;5016896;28;45374;-60
2022/12/17 16:12:12;;;;;;;;;45.00;39.75;;;;;1.73;59.82;101647.81;5024314;28;45505;-60
2022/12/17 16:14:37;;;;;;;;;43.25;40.75;;;;;1.75;59.82;101661.69;5019973;28;45612;-60
2022/12/17 16:17:02;;;;;;;;;38.75;38.25;;;;;1.68;60.01;101641.66;5015239;28;45488;-60
2022/12/17 16:19:28;;;;;;;;;48.00;40.25;;;;;1.70;60.04;101650.34;5014842;28;45330;-60
2022/12/17 16:21:53;;;;;;;;;46.50;42.00;;;;;1.65;59.99;101636.44;5033432;28;45393;-60
2022/12/17 16:24:22;;;;;;;;;52.75;38.75;;;;;1.73;59.58;101650.41;5029061;28;45405;-60
2022/12/17 16:26:47;;;;;;;;;48.50;40.50;;;;;1.72;59.04;101644.34;5024148;28;45610;-59
2022/12/17 16:29:13;;;;;;;;;50.00;40.50;;;;;1.68;59.57;101626.97;5030977;28;45718;-64
2022/12/17 16:31:38;;;;;;;;;43.25;38.75;;;;;1.75;58.77;101647.00;5024415;28;45454;-65
2022/12/17 16:34:09;;;;;;;;;40.25;39.75;;;;;1.65;59.35;101626.06;5019768;28;45484;-61
2022/12/17 16:36:34;;;;;;;;;41.50;37.50;;;;;1.68;59.04;101633.88;5022685;28;48283;-61
2022/12/17 16:39:00;;;;;;;;;43.50;39.75;;;;;1.68;59.35;101637.34;5018225;28;45368;-61
2022/12/17 16:41:25;;;;;;;;;47.25;42.25;;;;;1.70;58.74;101639.97;5023411;28;45939;-61
2022/12/17 16:43:50;;;;;;;;;50.50;37.75;;;;;1.65;59.05;101639.03;5020197;28;45486;-64
2022/12/17 16:46:22;;;;;;;;;44.00;40.25;;;;;1.67;59.20;101648.56;5017933;28;46703;-64
2022/12/17 16:48:47;;;;;;;;;38.50;35.50;;;;;1.66;59.08;101649.41;5017880;28;45432;-64
2022/12/17 16:51:17;;;;;;;;;39.75;38.00;;;;;1.48;59.21;101618.00;5019346;28;45543;-58
2022/12/17 16:53:43;;;;;;;;;39.75;38.00;;;;;1.64;59.10;101642.44;5029797;28;45533;-60
2022/12/17 16:56:15;;;;;;;;;54.00;44.50;;;;;1.55;59.50;101625.88;5021052;28;46612;-59
2022/12/17 16:58:40;;;;;;;;;42.25;39.00;;;;;1.55;59.36;101628.47;5023902;28;45403;-60
2022/12/17 17:01:05;;;;;;;;;41.50;35.00;;;;;1.45;58.85;101626.56;5023921;28;45602;-61
2022/12/17 17:03:31;;;;;;;;;33.25;33.25;;;;;1.44;59.00;101640.38;5020431;28;45480;-61
2022/12/17 17:06:00;;;;;;;;;30.25;26.25;;;;;1.35;58.06;101627.25;5020587;28;46598;-58
2022/12/17 17:08:25;;;;;;;;;38.00;34.25;;;;;1.37;59.43;101641.13;5026635;28;45455;-57
2022/12/17 17:10:50;;;;;;;;;37.00;36.25;;;;;1.30;58.83;101641.84;5018497;28;45483;-59
2022/12/17 17:13:16;;;;;;;;;43.00;40.25;;;;;1.31;58.63;101649.63;5026763;28;45534;-60
2022/12/17 17:15:41;;;;;;;;;44.25;35.00;;;;;1.35;59.47;101650.56;5018239;28;45504;-61
2022/12/17 17:18:06;;;;;;;;;43.50;38.50;;;;;1.26;59.06;101622.75;5018231;28;45389;-59
2022/12/17 17:20:32;;;;;;;;;45.00;39.25;;;;;1.32;58.92;101632.38;5024666;28;45448;-60
2022/12/17 17:22:57;;;;;;;;;49.75;39.25;;;;;1.24;58.88;101631.34;5037287;28;45443;-61
2022/12/17 17:25:23;;;;;;;;;40.75;36.00;;;;;1.28;58.96;101643.50;5031764;28;45454;-61
2022/12/17 17:27:48;;;;;;;;;46.00;40.25;;;;;1.32;59.85;101643.59;5036558;28;45488;-62
2022/12/17 17:30:13;;;;;;;;;43.00;39.50;;;;;1.28;59.24;101627.97;5031974;28;45427;-59
2022/12/17 17:32:39;;;;;;;;;45.50;40.50;;;;;1.32;59.24;101642.75;5037983;28;45630;-60
2022/12/17 17:35:04;;;;;;;;;54.75;43.00;;;;;1.30;59.16;101649.59;5037034;28;46211;-61
2022/12/17 17:37:30;;;;;;;;;40.50;40.00;;;;;1.31;59.15;101653.94;5036408;28;45415;-60
2022/12/17 17:39:55;;;;;;;;;42.00;40.00;;;;;1.34;59.34;101656.56;5037966;28;45505;-61
2022/12/17 17:42:20;;;;;;;;;42.25;38.25;;;;;1.31;59.91;101657.38;5029955;28;45392;-64
2022/12/17 17:44:47;;;;;;;;;42.00;39.00;;;;;1.35;59.72;101660.06;5035676;28;48057;-60
2022/12/17 17:47:12;;;;;;;;;51.50;45.75;;;;;1.31;59.75;101664.28;5035887;28;45603;-63
2022/12/17 17:49:38;;;;;;;;;57.00;46.25;;;;;1.29;59.86;101666.88;5017837;28;45944;-63
2022/12/17 17:52:03;;;;;;;;;58.75;46.25;;;;;1.30;60.33;101666.03;5017144;28;45462;-60
2022/12/17 17:54:29;;;;;;;;;51.00;43.00;;;;;1.28;60.14;101654.75;5017178;28;46078;-61
2022/12/17 17:56:55;;;;;;;;;49.50;42.75;;;;;1.24;60.20;101649.50;5016608;28;45524;-62
2022/12/17 17:59:21;;;;;;;;;56.25;46.25;;;;;1.25;59.49;101652.09;5016887;28;45654;-62
2022/12/17 18:01:49;;;;;;;;;51.50;42.25;;;;;1.26;60.24;101650.38;5017206;28;45512;-61
2022/12/17 18:04:17;;;;;;;;;53.50;45.25;;;;;1.26;60.49;101646.09;5020218;28;45523;-60
2022/12/17 18:06:44;;;;;;;;;57.00;44.00;;;;;1.23;60.37;101646.00;5016627;28;45554;-61
2022/12/17 18:09:11;;;;;;;;;50.00;45.50;;;;;1.20;60.15;101643.34;5016836;28;45504;-61
2022/12/17 18:11:38;;;;;;;;;60.75;46.00;;;;;1.18;60.94;101646.75;5025013;28;45585;-63
2022/12/17 18:14:06;;;;;;;;;55.75;45.75;;;;;1.20;61.03;101634.72;5016575;28;46600;-62
2022/12/17 18:16:36;;;;;;;;;60.50;47.25;;;;;1.20;60.77;101621.75;5016937;28;45407;-64
2022/12/17 18:19:06;;;;;;;;;51.75;43.75;;;;;1.21;61.12;101626.09;5017195;28;45460;-62
2022/12/17 18:21:32;;;;;;;;;64.25;52.25;;;;;1.20;60.26;101619.16;5035302;28;45392;-61
2022/12/17 18:24:02;;;;;;;;;55.00;45.25;;;;;1.24;60.22;101626.16;5026079;28;46934;-64
2022/12/17 18:26:31;;;;;;;;;59.25;46.50;;;;;1.27;60.51;101641.78;5037412;28;45382;-63
2022/12/17 18:28:57;;;;;;;;;62.25;49.75;;;;;1.25;60.62;101651.22;5032467;28;45562;-60
2022/12/17 18:31:25;;;;;;;;;60.25;48.50;;;;;1.27;60.76;101645.22;5034266;28;45479;-60
2022/12/17 18:34:01;;;;;;;;;68.75;52.00;;;;;1.27;60.66;101639.19;5035171;28;45640;-60
2022/12/17 18:36:29;;;;;;;;;62.00;49.00;;;;;1.22;61.48;101626.13;5036713;28;45417;-61
2022/12/17 18:38:56;;;;;;;;;68.25;53.75;;;;;1.25;61.36;101639.13;5036534;28;45531;-64
2022/12/17 18:44:06;;;;;;;;;66.25;54.50;;;;;1.18;60.52;101646.75;5032171;28;45708;-61
2022/12/17 18:46:33;;;;;;;;;61.25;51.00;;;;;1.23;61.28;101658.09;5025209;28;45642;-60
2022/12/17 18:49:03;;;;;;;;;64.50;55.25;;;;;1.14;60.82;101651.00;5027361;28;45420;-60
2022/12/17 18:51:28;;;;;;;;;63.00;46.00;;;;;1.20;61.64;101664.09;5028123;28;45449;-63
2022/12/17 18:54:00;;;;;;;;;59.00;50.00;;;;;1.19;61.39;101670.13;5027725;28;45423;-61
2022/12/17 18:56:26;;;;;;;;;70.50;51.50;;;;;1.23;61.75;101673.63;5028672;28;45468;-62
2022/12/17 18:58:52;;;;;;;;;60.00;52.00;;;;;1.12;61.71;101660.47;5036029;28;45506;-65
2022/12/17 19:01:29;;;;;;;;;65.75;52.00;;;;;1.17;61.46;101673.53;5030112;28;45440;-61
2022/12/17 19:03:55;;;;;;;;;63.00;53.50;;;;;1.18;61.15;101677.84;5019275;28;46568;-62
2022/12/17 19:06:22;;;;;;;;;67.50;55.50;;;;;1.19;61.01;101671.84;5027575;28;45871;-60
2022/12/17 19:08:49;;;;;;;;;67.25;55.00;;;;;1.13;61.20;101666.50;5033752;28;45542;-58
2022/12/17 19:11:19;;;;;;;;;65.00;53.25;;;;;1.17;61.63;101676.97;5035917;28;45495;-59
2022/12/17 19:13:45;;;;;;;;;67.00;53.25;;;;;1.18;61.47;101675.25;5028078;28;46210;-63
2022/12/17 19:16:14;;;;;;;;;65.75;52.75;;;;;1.14;60.88;101676.06;5023037;28;45411;-61
2022/12/17 19:18:39;;;;;;;;;60.00;46.50;;;;;1.01;60.06;101665.41;5027864;28;45531;-55
2022/12/17 19:21:07;;;;;;;;;60.50;50.75;;;;;1.05;60.42;101675.03;5028829;28;45388;-59
2022/12/17 19:23:33;;;;;;;;;62.50;48.50;;;;;0.91;59.88;101652.25;5035172;28;46494;-58
2022/12/17 19:26:09;;;;;;;;;58.25;48.25;;;;;1.04;61.17;101682.75;5036354;28;45494;-62
2022/12/17 19:28:35;;;;;;;;;66.25;54.00;;;;;1.05;60.00;101685.38;5034226;28;45398;-59
2022/12/17 19:31:01;;;;;;;;;67.50;56.00;;;;;1.05;60.49;101680.19;5035080;28;45400;-59
2022/12/17 19:33:26;;;;;;;;;61.50;50.25;;;;;1.01;60.09;101670.59;5034718;28;45601;-60
2022/12/17 19:36:08;;;;;;;;;66.00;50.50;;;;;0.93;59.67;101659.22;5035307;28;45464;-61
2022/12/17 19:38:34;;;;;;;;;62.50;50.75;;;;;0.99;60.33;101671.41;5035797;28;45519;-61
2022/12/17 19:41:04;;;;;;;;;57.25;48.00;;;;;0.94;60.56;101662.66;5035507;28;45487;-57
2022/12/17 19:43:30;;;;;;;;;59.25;49.50;;;;;0.94;60.46;101668.75;5035352;28;46515;-60
2022/12/17 19:46:07;;;;;;;;;59.00;44.00;;;;;0.87;60.66;101670.31;5034881;28;45500;-59
2022/12/17 19:48:35;;;;;;;;;59.25;48.00;;;;;0.85;60.46;101668.53;5030085;28;45317;-58
2022/12/17 19:51:01;;;;;;;;;61.00;48.50;;;;;0.80;59.90;101664.97;5035343;28;45500;-58
2022/12/17 19:53:28;;;;;;;;;58.75;47.25;;;;;0.86;60.96;101673.75;5035304;28;46195;-57
2022/12/17 19:55:56;;;;;;;;;57.00;46.25;;;;;0.81;60.67;101669.31;5035203;28;45483;-57
2022/12/17 19:58:23;;;;;;;;;66.00;50.75;;;;;0.76;59.99;101663.16;5034874;28;45563;-55
2022/12/17 20:00:49;;;;;;;;;53.75;46.00;;;;;0.72;60.73;101662.19;5034722;28;45449;-59
2022/12/17 20:03:15;;;;;;;;;66.25;51.75;;;;;0.71;59.87;101667.38;5034600;28;46256;-62
2022/12/17 20:05:45;;;;;;;;;58.50;46.00;;;;;0.68;61.14;101681.13;5034874;28;45361;-57
2022/12/17 20:08:10;;;;;;;;;62.50;51.25;;;;;0.64;61.40;101685.31;5033754;28;45570;-60
2022/12/17 20:10:36;;;;;;;;;65.25;52.50;;;;;0.63;60.62;101686.19;5034443;28;45512;-57
2022/12/17 20:13:02;;;;;;;;;61.50;50.50;;;;;0.60;60.09;101680.06;5023721;28;47092;-57
2022/12/17 20:15:29;;;;;;;;;60.00;50.75;;;;;0.61;60.97;101695.63;5014892;28;45564;-58
2022/12/17 20:17:54;;;;;;;;;59.50;50.75;;;;;0.62;60.73;101694.78;5022044;28;45433;-58
2022/12/17 20:20:19;;;;;;;;;66.25;52.25;;;;;0.63;61.22;101690.50;5021421;28;45488;-60
2022/12/17 20:22:45;;;;;;;;;65.00;53.75;;;;;0.66;61.52;101696.59;5034368;28;45452;-58
2022/12/17 20:25:10;;;;;;;;;60.75;50.75;;;;;0.62;61.12;101693.94;5034783;28;45413;-57
2022/12/17 20:27:37;;;;;;;;;66.50;53.50;;;;;0.66;60.33;101701.78;5033438;28;45392;-59
2022/12/17 20:30:04;;;;;;;;;64.25;51.25;;;;;0.66;61.69;101716.44;5034175;28;45574;-57
2022/12/17 20:32:32;;;;;;;;;61.50;52.00;;;;;0.62;60.61;101718.09;5034199;28;46295;-61
2022/12/17 20:34:57;;;;;;;;;62.25;48.50;;;;;0.59;60.80;101722.31;5033896;28;45450;-57
2022/12/17 20:37:23;;;;;;;;;59.75;49.25;;;;;0.60;60.16;101724.94;5034820;28;45406;-54
2022/12/17 20:39:48;;;;;;;;;53.75;45.25;;;;;0.57;61.57;101711.06;5034248;28;45373;-58
2022/12/17 20:42:15;;;;;;;;;62.25;49.00;;;;;0.59;60.76;101701.59;5034418;28;45508;-61
2022/12/17 20:44:41;;;;;;;;;60.50;48.25;;;;;0.62;60.43;101706.88;5034607;28;45394;-56
2022/12/17 20:47:06;;;;;;;;;49.25;41.50;;;;;0.57;60.23;101704.16;5025411;28;45437;-56
2022/12/17 20:49:32;;;;;;;;;64.75;52.50;;;;;0.61;59.92;101718.91;5031896;28;45590;-61
2022/12/17 20:51:57;;;;;;;;;65.75;51.50;;;;;0.60;60.02;101717.19;5034302;28;45547;-60
2022/12/17 20:54:22;;;;;;;;;69.25;53.00;;;;;0.57;60.08;101714.53;5033797;28;45503;-55
2022/12/17 20:56:48;;;;;;;;;65.50;54.75;;;;;0.60;60.91;101716.31;5034074;28;45763;-55
2022/12/17 20:59:16;;;;;;;;;60.75;50.25;;;;;0.56;60.48;101725.69;5032461;28;45466;-57
2022/12/17 21:01:41;;;;;;;;;62.00;48.50;;;;;0.51;61.09;101732.50;5033596;28;45270;-59
2022/12/17 21:04:07;;;;;;;;;59.00;47.75;;;;;0.53;60.97;101735.97;5033754;28;45390;-57
2022/12/17 21:06:38;;;;;;;;;67.75;52.50;;;;;0.47;61.04;101728.06;5034650;28;45372;-58
2022/12/17 21:09:04;;;;;;;;;64.00;53.50;;;;;0.40;59.92;101724.47;5032355;28;45651;-59
2022/12/17 21:11:31;;;;;;;;;64.75;53.50;;;;;0.33;61.16;101719.97;5033179;28;45468;-58
2022/12/17 21:13:58;;;;;;;;;61.25;49.75;;;;;0.30;60.31;101717.31;5034427;28;45594;-56
2022/12/17 21:16:27;;;;;;;;;63.50;50.25;;;;;0.33;60.12;101721.69;5030167;28;45448;-56
2022/12/17 21:18:57;;;;;;;;;59.75;51.25;;;;;0.31;61.12;101715.59;5023735;28;45543;-56
2022/12/17 21:21:25;;;;;;;;;63.25;50.00;;;;;0.31;60.58;101728.53;5031894;28;46527;-58
2022/12/17 21:23:51;;;;;;;;;61.00;48.75;;;;;0.32;60.93;101725.09;5038007;28;45452;-57
2022/12/17 21:26:23;;;;;;;;;67.50;53.50;;;;;0.35;59.76;101723.50;5025192;28;45405;-59
2022/12/17 21:28:51;;;;;;;;;24.50;18.00;;;;;0.31;59.61;101724.22;5018182;28;45373;-57
2022/12/17 21:31:32;;;;;;;;;52.50;42.75;;;;;0.29;59.68;101712.09;5030083;28;45453;-54
2022/12/17 21:34:00;;;;;;;;;56.75;48.00;;;;;0.29;60.66;101717.28;5037599;28;45523;-58
2022/12/17 21:36:26;;;;;;;;;58.75;47.50;;;;;0.20;59.91;101716.22;5037586;28;45441;-58
2022/12/17 21:38:52;;;;;;;;;53.50;46.00;;;;;0.10;60.57;101716.81;5037444;28;45286;-56
2022/12/17 21:41:20;;;;;;;;;55.00;45.25;;;;;0.13;60.02;101718.59;5037317;28;46674;-57
2022/12/17 21:43:46;;;;;;;;;62.50;50.00;;;;;0.10;61.30;101705.59;5037220;28;45459;-58
2022/12/17 21:46:12;;;;;;;;;54.50;45.25;;;;;0.05;61.26;101704.59;5032287;28;45760;-60
2022/12/17 21:48:40;;;;;;;;;54.50;44.00;;;;;0.03;60.31;101703.69;5027970;28;45621;-57
2022/12/17 21:51:07;;;;;;;;;59.75;48.00;;;;;-0.13;61.53;101686.91;5036348;28;45617;-60
2022/12/17 21:53:34;;;;;;;;;51.00;44.75;;;;;0.07;61.05;101703.81;5037334;28;45498;-57
2022/12/17 21:56:07;;;;;;;;;56.25;48.00;;;;;0.02;60.25;101700.22;5037335;28;45372;-57
2022/12/17 21:58:33;;;;;;;;;59.25;50.50;;;;;-0.05;60.14;101686.28;5037324;28;45485;-57
2022/12/17 22:01:11;;;;;;;;;67.25;53.00;;;;;-0.08;60.13;101693.06;5031170;28;46536;-61
2022/12/17 22:03:36;;;;;;;;;59.00;45.50;;;;;-0.14;61.15;101690.31;5028734;28;46191;-58
2022/12/17 22:06:11;;;;;;;;;59.00;47.50;;;;;-0.16;61.22;101681.63;5036588;28;45511;-58
2022/12/17 22:08:37;;;;;;;;;60.00;48.75;;;;;-0.19;61.36;101681.56;5036290;28;45478;-58
2022/12/17 22:11:07;;;;;;;;;63.50;50.25;;;;;-0.19;62.25;101684.16;5036167;28;46678;-59
2022/12/17 22:16:16;;;;;;;;;60.25;49.75;;;;;-0.25;61.48;101680.56;5030884;28;45495;-57
2022/12/17 22:18:42;;;;;;;;;88.67;67.67;;;;;-0.28;61.16;101677.03;5021191;28;45354;-58
2022/12/17 22:21:07;;;;;;;;;62.75;48.75;;;;;-0.33;62.34;101670.88;5029723;28;45486;-59
2022/12/17 22:23:32;;;;;;;;;63.00;52.75;;;;;-0.37;61.56;101682.84;5036758;28;45474;-56
2022/12/17 22:25:58;;;;;;;;;59.75;48.00;;;;;-0.38;62.59;101682.78;5037440;28;45542;-58
2022/12/17 22:28:23;;;;;;;;;60.75;47.50;;;;;-0.37;62.94;101674.22;5035458;28;45475;-60
2022/12/17 22:33:32;;;;;;;;;66.25;52.25;;;;;-0.25;61.44;101690.91;5036017;28;45473;-57
2022/12/17 22:36:00;;;;;;;;;57.00;48.00;;;;;-0.26;62.54;101686.59;5036876;28;45456;-60
2022/12/17 22:38:26;;;;;;;;;62.50;50.00;;;;;-0.35;63.06;101669.94;5036796;28;45465;-59
2022/12/17 22:40:51;;;;;;;;;64.00;50.25;;;;;-0.40;61.70;101658.59;5036479;28;46506;-57
2022/12/17 22:43:29;;;;;;;;;63.50;47.75;;;;;-0.43;61.93;101662.00;5036574;28;45527;-60
2022/12/17 22:45:59;;;;;;;;;59.75;51.25;;;;;-0.43;63.65;101662.00;5018865;28;45396;-57
2022/12/17 22:48:25;;;;;;;;;62.25;52.50;;;;;-0.40;63.56;101654.34;5030321;28;45622;-60
2022/12/17 22:50:50;;;;;;;;;62.25;50.00;;;;;-0.40;62.18;101662.09;5035355;28;46279;-56
2022/12/17 22:53:16;;;;;;;;;62.25;52.00;;;;;-0.38;63.63;101672.44;5036460;28;45435;-61
2022/12/17 22:55:41;;;;;;;;;58.50;47.50;;;;;-0.39;63.34;101670.72;5035970;28;45440;-59
2022/12/17 22:58:06;;;;;;;;;67.00;50.25;;;;;-0.39;62.01;101669.00;5036544;28;45587;-60
2022/12/17 23:00:33;;;;;;;;;63.75;50.75;;;;;-0.42;61.88;101655.13;5034869;28;47111;-59
2022/12/17 23:02:59;;;;;;;;;59.25;48.50;;;;;-0.36;63.07;101665.63;5036341;28;45437;-58
2022/12/17 23:05:26;;;;;;;;;60.75;50.75;;;;;-0.39;62.16;101657.78;5036495;28;45452;-62
2022/12/17 23:07:51;;;;;;;;;53.25;44.25;;;;;-0.39;63.50;101650.91;5036132;28;45636;-58
2022/12/17 23:10:18;;;;;;;;;67.00;51.25;;;;;-0.46;63.17;101647.31;5034685;28;46557;-62
2022/12/17 23:12:49;;;;;;;;;60.25;49.25;;;;;-0.45;63.25;101654.22;5035394;28;45479;-58
2022/12/17 23:15:15;;;;;;;;;61.50;48.25;;;;;-0.43;62.59;101662.00;5036293;28;45337;-59
2022/12/17 23:17:41;;;;;;;;;61.75;51.00;;;;;-0.46;63.55;101644.72;5030706;28;45429;-61
2022/12/17 23:20:07;;;;;;;;;65.25;49.25;;;;;-0.41;63.00;101638.78;5035409;28;45368;-58
2022/12/17 23:22:32;;;;;;;;;62.50;52.25;;;;;-0.42;61.87;101632.75;5036094;28;45528;-59
2022/12/17 23:24:57;;;;;;;;;66.75;52.00;;;;;-0.42;63.31;101640.50;5034746;28;45411;-58
2022/12/17 23:27:23;;;;;;;;;57.25;47.25;;;;;-0.46;62.96;101638.66;5016022;28;45496;-59
2022/12/17 23:29:48;;;;;;;;;66.25;48.50;;;;;-0.53;62.16;101619.53;5014983;28;45366;-60
2022/12/17 23:32:13;;;;;;;;;53.75;43.75;;;;;-0.53;63.21;101636.75;5015561;28;45360;-58
2022/12/17 23:34:39;;;;;;;;;64.25;53.75;;;;;-0.58;62.97;101622.84;5015955;28;45428;-59
2022/12/17 23:37:04;;;;;;;;;58.25;49.00;;;;;-0.61;62.66;101622.75;5015614;28;45404;-60
2022/12/17 23:39:29;;;;;;;;;62.50;48.50;;;;;-0.55;63.00;101626.38;5015714;28;45785;-58
2022/12/17 23:41:55;;;;;;;;;56.25;50.00;;;;;-0.54;62.28;101625.56;5015465;28;45523;-57
2022/12/17 23:44:20;;;;;;;;;62.50;50.75;;;;;-0.57;63.22;101624.56;5015870;28;45979;-56
2022/12/17 23:46:46;;;;;;;;;68.67;52.67;;;;;-0.57;62.25;101624.56;5017997;28;45405;-58
2022/12/17 23:49:11;;;;;;;;;62.75;51.00;;;;;-0.56;62.56;101636.69;5015142;28;46428;-56
2022/12/17 23:51:36;;;;;;;;;45.75;39.75;;;;;-0.54;61.88;101629.81;5028560;28;45655;-58
2022/12/17 23:54:02;;;;;;;;;61.25;49.25;;;;;-0.57;62.77;101634.91;5017047;28;45374;-57
2022/12/17 23:56:27;;;;;;;;;63.25;51.75;;;;;-0.56;62.14;101639.25;5015626;28;45587;-59
2022/12/17 23:58:59;;;;;;;;;68.67;52.67;;;;;-0.58;61.45;101636.63;5015257;28;45610;-60
